sensor_id;sensor_type;location;lat;lon;timestamp;temperature;humidity
8910;DHT22;4490;49.072;8.804;2022-09-13T00:00:07;15.60;78.10
8910;DHT22;4490;49.072;8.804;2022-09-13T00:02:32;15.60;78.10
8910;DHT22;4490;49.072;8.804;2022-09-13T00:04:58;15.50;78.30
8910;DHT22;4490;49.072;8.804;2022-09-13T00:07:24;15.50;78.30
8910;DHT22;4490;49.072;8.804;2022-09-13T00:09:49;15.50;78.30
8910;DHT22;4490;49.072;8.804;2022-09-13T00:12:15;15.50;78.40
8910;DHT22;4490;49.072;8.804;2022-09-13T00:14:40;15.40;78.40
8910;DHT22;4490;49.072;8.804;2022-09-13T00:17:07;15.40;78.50
8910;DHT22;4490;49.072;8.804;2022-09-13T00:19:33;15.40;78.70
8910;DHT22;4490;49.072;8.804;2022-09-13T00:21:58;15.40;78.80
8910;DHT22;4490;49.072;8.804;2022-09-13T00:24:24;15.40;78.90
8910;DHT22;4490;49.072;8.804;2022-09-13T00:26:49;15.40;79.10
8910;DHT22;4490;49.072;8.804;2022-09-13T00:29:15;15.30;79.10
8910;DHT22;4490;49.072;8.804;2022-09-13T00:31:41;15.30;79.20
8910;DHT22;4490;49.072;8.804;2022-09-13T00:34:06;15.30;79.30
8910;DHT22;4490;49.072;8.804;2022-09-13T00:36:32;15.30;79.30
8910;DHT22;4490;49.072;8.804;2022-09-13T00:38:59;15.20;79.40
8910;DHT22;4490;49.072;8.804;2022-09-13T00:41:25;15.20;79.60
8910;DHT22;4490;49.072;8.804;2022-09-13T00:43:53;15.20;79.70
8910;DHT22;4490;49.072;8.804;2022-09-13T00:46:39;15.20;79.80
8910;DHT22;4490;49.072;8.804;2022-09-13T00:49:21;15.10;79.90
8910;DHT22;4490;49.072;8.804;2022-09-13T00:51:51;15.10;80.10
8910;DHT22;4490;49.072;8.804;2022-09-13T00:54:19;15.00;80.10
8910;DHT22;4490;49.072;8.804;2022-09-13T00:56:50;15.00;80.40
8910;DHT22;4490;49.072;8.804;2022-09-13T00:59:33;15.00;80.50
8910;DHT22;4490;49.072;8.804;2022-09-13T01:02:00;15.00;80.60
8910;DHT22;4490;49.072;8.804;2022-09-13T01:04:30;14.90;80.50
8910;DHT22;4490;49.072;8.804;2022-09-13T01:07:01;14.80;80.70
8910;DHT22;4490;49.072;8.804;2022-09-13T01:09:30;14.80;81.00
8910;DHT22;4490;49.072;8.804;2022-09-13T01:12:06;14.70;81.80
8910;DHT22;4490;49.072;8.804;2022-09-13T01:14:35;14.60;81.20
8910;DHT22;4490;49.072;8.804;2022-09-13T01:17:01;14.60;81.40
8910;DHT22;4490;49.072;8.804;2022-09-13T01:19:27;14.50;81.60
8910;DHT22;4490;49.072;8.804;2022-09-13T01:28:17;14.50;82.10
8910;DHT22;4490;49.072;8.804;2022-09-13T01:34:16;14.50;82.10
8910;DHT22;4490;49.072;8.804;2022-09-13T01:37:10;14.50;82.30
8910;DHT22;4490;49.072;8.804;2022-09-13T01:45:45;14.40;82.50
8910;DHT22;4490;49.072;8.804;2022-09-13T01:53:46;14.30;82.70
8910;DHT22;4490;49.072;8.804;2022-09-13T01:56:25;14.30;82.90
8910;DHT22;4490;49.072;8.804;2022-09-13T01:59:03;14.30;83.00
8910;DHT22;4490;49.072;8.804;2022-09-13T02:01:44;14.30;83.10
8910;DHT22;4490;49.072;8.804;2022-09-13T02:04:20;14.30;83.20
8910;DHT22;4490;49.072;8.804;2022-09-13T02:06:52;14.30;83.30
8910;DHT22;4490;49.072;8.804;2022-09-13T02:09:24;14.30;83.40
8910;DHT22;4490;49.072;8.804;2022-09-13T02:11:57;14.20;83.40
8910;DHT22;4490;49.072;8.804;2022-09-13T02:14:33;14.20;83.60
8910;DHT22;4490;49.072;8.804;2022-09-13T02:17:15;14.20;83.90
8910;DHT22;4490;49.072;8.804;2022-09-13T02:19:54;14.20;84.20
8910;DHT22;4490;49.072;8.804;2022-09-13T02:22:26;14.10;84.30
8910;DHT22;4490;49.072;8.804;2022-09-13T02:25:04;14.10;84.30
8910;DHT22;4490;49.072;8.804;2022-09-13T02:27:32;14.20;84.50
8910;DHT22;4490;49.072;8.804;2022-09-13T02:30:05;14.20;84.50
8910;DHT22;4490;49.072;8.804;2022-09-13T02:32:41;14.20;84.50
8910;DHT22;4490;49.072;8.804;2022-09-13T02:35:34;14.20;84.70
8910;DHT22;4490;49.072;8.804;2022-09-13T02:38:08;14.10;84.80
8910;DHT22;4490;49.072;8.804;2022-09-13T02:40:41;14.00;84.90
8910;DHT22;4490;49.072;8.804;2022-09-13T02:43:33;14.00;85.10
8910;DHT22;4490;49.072;8.804;2022-09-13T02:46:14;13.90;85.30
8910;DHT22;4490;49.072;8.804;2022-09-13T02:49:08;13.90;85.50
8910;DHT22;4490;49.072;8.804;2022-09-13T02:52:08;13.90;85.60
8910;DHT22;4490;49.072;8.804;2022-09-13T02:54:51;13.90;86.00
8910;DHT22;4490;49.072;8.804;2022-09-13T03:00:25;13.90;86.40
8910;DHT22;4490;49.072;8.804;2022-09-13T03:02:53;13.80;86.70
8910;DHT22;4490;49.072;8.804;2022-09-13T03:05:21;13.80;87.20
8910;DHT22;4490;49.072;8.804;2022-09-13T03:07:47;13.80;87.50
8910;DHT22;4490;49.072;8.804;2022-09-13T03:10:14;13.80;87.80
8910;DHT22;4490;49.072;8.804;2022-09-13T03:13:04;13.90;88.00
8910;DHT22;4490;49.072;8.804;2022-09-13T03:15:42;13.90;88.20
8910;DHT22;4490;49.072;8.804;2022-09-13T03:24:07;14.00;88.10
8910;DHT22;4490;49.072;8.804;2022-09-13T03:29:26;13.80;88.30
8910;DHT22;4490;49.072;8.804;2022-09-13T03:35:38;13.70;88.80
8910;DHT22;4490;49.072;8.804;2022-09-13T03:38:18;13.70;88.70
8910;DHT22;4490;49.072;8.804;2022-09-13T03:41:10;13.70;89.00
8910;DHT22;4490;49.072;8.804;2022-09-13T03:43:54;13.70;89.10
8910;DHT22;4490;49.072;8.804;2022-09-13T03:46:40;13.60;89.50
8910;DHT22;4490;49.072;8.804;2022-09-13T03:49:09;13.60;89.90
8910;DHT22;4490;49.072;8.804;2022-09-13T03:51:37;13.60;90.00
8910;DHT22;4490;49.072;8.804;2022-09-13T03:54:07;13.60;90.00
8910;DHT22;4490;49.072;8.804;2022-09-13T03:56:34;13.60;90.20
8910;DHT22;4490;49.072;8.804;2022-09-13T03:58:59;13.60;90.50
8910;DHT22;4490;49.072;8.804;2022-09-13T04:01:25;13.60;90.60
8910;DHT22;4490;49.072;8.804;2022-09-13T04:03:51;13.60;90.90
8910;DHT22;4490;49.072;8.804;2022-09-13T04:06:16;13.60;91.20
8910;DHT22;4490;49.072;8.804;2022-09-13T04:08:42;13.60;91.20
8910;DHT22;4490;49.072;8.804;2022-09-13T04:11:09;13.60;91.30
8910;DHT22;4490;49.072;8.804;2022-09-13T04:13:35;13.60;91.50
8910;DHT22;4490;49.072;8.804;2022-09-13T04:16:03;13.60;91.60
8910;DHT22;4490;49.072;8.804;2022-09-13T04:18:29;13.60;91.90
8910;DHT22;4490;49.072;8.804;2022-09-13T04:20:57;13.60;92.00
8910;DHT22;4490;49.072;8.804;2022-09-13T04:23:23;13.60;92.20
8910;DHT22;4490;49.072;8.804;2022-09-13T04:25:49;13.60;92.30
8910;DHT22;4490;49.072;8.804;2022-09-13T04:28:17;13.60;92.30
8910;DHT22;4490;49.072;8.804;2022-09-13T04:30:44;13.60;92.50
8910;DHT22;4490;49.072;8.804;2022-09-13T04:33:10;13.60;92.70
8910;DHT22;4490;49.072;8.804;2022-09-13T04:35:36;13.60;93.10
8910;DHT22;4490;49.072;8.804;2022-09-13T04:38:03;13.60;93.30
8910;DHT22;4490;49.072;8.804;2022-09-13T04:40:29;13.60;93.50
8910;DHT22;4490;49.072;8.804;2022-09-13T04:42:55;13.70;93.70
8910;DHT22;4490;49.072;8.804;2022-09-13T04:45:20;13.70;93.70
8910;DHT22;4490;49.072;8.804;2022-09-13T04:47:55;13.70;93.70
8910;DHT22;4490;49.072;8.804;2022-09-13T04:50:23;13.80;93.70
8910;DHT22;4490;49.072;8.804;2022-09-13T04:52:49;13.80;93.70
8910;DHT22;4490;49.072;8.804;2022-09-13T04:55:15;13.80;94.00
8910;DHT22;4490;49.072;8.804;2022-09-13T04:57:41;13.80;94.10
8910;DHT22;4490;49.072;8.804;2022-09-13T05:00:07;13.80;94.30
8910;DHT22;4490;49.072;8.804;2022-09-13T05:02:33;13.80;94.60
8910;DHT22;4490;49.072;8.804;2022-09-13T05:04:59;13.80;94.60
8910;DHT22;4490;49.072;8.804;2022-09-13T05:07:25;13.80;94.60
8910;DHT22;4490;49.072;8.804;2022-09-13T05:09:50;13.80;94.70
8910;DHT22;4490;49.072;8.804;2022-09-13T05:12:16;13.80;94.80
8910;DHT22;4490;49.072;8.804;2022-09-13T05:14:42;13.80;95.00
8910;DHT22;4490;49.072;8.804;2022-09-13T05:17:07;13.80;95.40
8910;DHT22;4490;49.072;8.804;2022-09-13T05:19:33;13.80;95.80
8910;DHT22;4490;49.072;8.804;2022-09-13T05:22:00;13.80;96.20
8910;DHT22;4490;49.072;8.804;2022-09-13T05:24:25;13.80;96.60
8910;DHT22;4490;49.072;8.804;2022-09-13T05:26:51;13.80;97.10
8910;DHT22;4490;49.072;8.804;2022-09-13T05:29:17;13.90;97.40
8910;DHT22;4490;49.072;8.804;2022-09-13T05:31:43;13.90;97.70
8910;DHT22;4490;49.072;8.804;2022-09-13T05:34:18;13.90;97.90
8910;DHT22;4490;49.072;8.804;2022-09-13T05:36:44;14.00;98.00
8910;DHT22;4490;49.072;8.804;2022-09-13T05:39:15;14.10;98.30
8910;DHT22;4490;49.072;8.804;2022-09-13T05:41:42;14.10;98.50
8910;DHT22;4490;49.072;8.804;2022-09-13T05:44:08;14.10;99.00
8910;DHT22;4490;49.072;8.804;2022-09-13T05:46:34;14.10;99.40
8910;DHT22;4490;49.072;8.804;2022-09-13T05:49:00;14.20;99.70
8910;DHT22;4490;49.072;8.804;2022-09-13T05:51:25;14.30;99.90
8910;DHT22;4490;49.072;8.804;2022-09-13T05:53:52;14.30;99.90
8910;DHT22;4490;49.072;8.804;2022-09-13T05:56:28;14.40;99.90
8910;DHT22;4490;49.072;8.804;2022-09-13T05:58:54;14.40;99.90
8910;DHT22;4490;49.072;8.804;2022-09-13T06:01:24;14.50;99.90
8910;DHT22;4490;49.072;8.804;2022-09-13T06:03:51;14.50;99.90
8910;DHT22;4490;49.072;8.804;2022-09-13T06:06:18;14.60;99.90
8910;DHT22;4490;49.072;8.804;2022-09-13T06:08:44;14.60;99.90
8910;DHT22;4490;49.072;8.804;2022-09-13T06:11:11;14.60;99.90
8910;DHT22;4490;49.072;8.804;2022-09-13T06:13:37;14.70;99.90
8910;DHT22;4490;49.072;8.804;2022-09-13T06:16:05;14.70;99.90
8910;DHT22;4490;49.072;8.804;2022-09-13T06:18:32;14.70;99.90
8910;DHT22;4490;49.072;8.804;2022-09-13T06:21:03;14.80;99.90
8910;DHT22;4490;49.072;8.804;2022-09-13T06:23:29;14.80;99.90
8910;DHT22;4490;49.072;8.804;2022-09-13T06:26:05;14.80;99.90
8910;DHT22;4490;49.072;8.804;2022-09-13T06:28:32;14.90;99.90
8910;DHT22;4490;49.072;8.804;2022-09-13T06:31:06;14.90;99.90
8910;DHT22;4490;49.072;8.804;2022-09-13T06:33:35;15.00;99.90
8910;DHT22;4490;49.072;8.804;2022-09-13T06:36:02;15.00;99.90
8910;DHT22;4490;49.072;8.804;2022-09-13T06:38:28;15.10;99.90
8910;DHT22;4490;49.072;8.804;2022-09-13T06:41:05;15.20;99.90
8910;DHT22;4490;49.072;8.804;2022-09-13T06:43:32;15.40;99.90
8910;DHT22;4490;49.072;8.804;2022-09-13T06:46:03;15.50;99.90
8910;DHT22;4490;49.072;8.804;2022-09-13T06:48:33;15.60;99.80
8910;DHT22;4490;49.072;8.804;2022-09-13T06:51:00;15.70;99.30
8910;DHT22;4490;49.072;8.804;2022-09-13T06:53:27;15.80;98.90
8910;DHT22;4490;49.072;8.804;2022-09-13T06:56:03;16.00;98.90
8910;DHT22;4490;49.072;8.804;2022-09-13T06:58:29;16.20;98.60
8910;DHT22;4490;49.072;8.804;2022-09-13T07:01:26;16.40;98.20
8910;DHT22;4490;49.072;8.804;2022-09-13T07:04:04;16.60;97.80
8910;DHT22;4490;49.072;8.804;2022-09-13T07:06:36;16.80;97.30
8910;DHT22;4490;49.072;8.804;2022-09-13T07:09:04;17.00;96.90
8910;DHT22;4490;49.072;8.804;2022-09-13T07:11:33;17.20;96.30
8910;DHT22;4490;49.072;8.804;2022-09-13T07:13:59;17.30;95.60
8910;DHT22;4490;49.072;8.804;2022-09-13T07:16:28;17.40;94.90
8910;DHT22;4490;49.072;8.804;2022-09-13T07:18:58;17.60;94.30
8910;DHT22;4490;49.072;8.804;2022-09-13T07:21:26;17.70;93.90
8910;DHT22;4490;49.072;8.804;2022-09-13T07:23:52;17.80;93.80
8910;DHT22;4490;49.072;8.804;2022-09-13T07:26:19;17.80;93.70
8910;DHT22;4490;49.072;8.804;2022-09-13T07:28:47;17.90;93.30
8910;DHT22;4490;49.072;8.804;2022-09-13T07:31:15;17.90;93.00
8910;DHT22;4490;49.072;8.804;2022-09-13T07:33:43;18.00;93.00
8910;DHT22;4490;49.072;8.804;2022-09-13T07:36:09;18.00;92.90
8910;DHT22;4490;49.072;8.804;2022-09-13T07:38:38;18.00;93.00
8910;DHT22;4490;49.072;8.804;2022-09-13T07:41:06;18.00;93.10
8910;DHT22;4490;49.072;8.804;2022-09-13T07:43:34;18.00;93.10
8910;DHT22;4490;49.072;8.804;2022-09-13T07:46:23;18.10;93.10
8910;DHT22;4490;49.072;8.804;2022-09-13T07:48:52;18.10;93.20
8910;DHT22;4490;49.072;8.804;2022-09-13T07:51:21;18.10;93.20
8910;DHT22;4490;49.072;8.804;2022-09-13T07:53:49;18.10;93.30
8910;DHT22;4490;49.072;8.804;2022-09-13T07:56:18;18.20;93.40
8910;DHT22;4490;49.072;8.804;2022-09-13T07:58:47;18.30;93.40
8910;DHT22;4490;49.072;8.804;2022-09-13T08:04:03;18.40;93.30
8910;DHT22;4490;49.072;8.804;2022-09-13T08:06:30;18.50;93.10
8910;DHT22;4490;49.072;8.804;2022-09-13T08:08:56;18.60;93.00
8910;DHT22;4490;49.072;8.804;2022-09-13T08:11:36;18.70;92.90
8910;DHT22;4490;49.072;8.804;2022-09-13T08:14:04;18.70;92.60
8910;DHT22;4490;49.072;8.804;2022-09-13T08:16:30;18.80;92.40
8910;DHT22;4490;49.072;8.804;2022-09-13T08:18:57;18.90;92.20
8910;DHT22;4490;49.072;8.804;2022-09-13T08:21:24;18.90;92.00
8910;DHT22;4490;49.072;8.804;2022-09-13T08:23:54;19.00;91.70
8910;DHT22;4490;49.072;8.804;2022-09-13T08:26:21;19.20;91.80
8910;DHT22;4490;49.072;8.804;2022-09-13T08:28:46;19.20;91.70
8910;DHT22;4490;49.072;8.804;2022-09-13T08:31:14;19.40;91.50
8910;DHT22;4490;49.072;8.804;2022-09-13T08:33:46;19.50;91.50
8910;DHT22;4490;49.072;8.804;2022-09-13T08:36:13;19.60;91.50
8910;DHT22;4490;49.072;8.804;2022-09-13T08:38:39;19.80;91.50
8910;DHT22;4490;49.072;8.804;2022-09-13T08:46:44;20.20;90.80
8910;DHT22;4490;49.072;8.804;2022-09-13T08:49:20;20.40;90.60
8910;DHT22;4490;49.072;8.804;2022-09-13T08:51:52;20.60;90.10
8910;DHT22;4490;49.072;8.804;2022-09-13T08:54:19;20.70;89.70
8910;DHT22;4490;49.072;8.804;2022-09-13T09:05:23;21.80;83.70
8910;DHT22;4490;49.072;8.804;2022-09-13T09:07:59;22.10;83.10
8910;DHT22;4490;49.072;8.804;2022-09-13T09:10:39;22.30;81.60
8910;DHT22;4490;49.072;8.804;2022-09-13T09:13:11;22.40;79.50
8910;DHT22;4490;49.072;8.804;2022-09-13T09:18:31;22.60;79.50
8910;DHT22;4490;49.072;8.804;2022-09-13T09:20:59;22.70;79.20
8910;DHT22;4490;49.072;8.804;2022-09-13T09:23:37;23.10;77.50
8910;DHT22;4490;49.072;8.804;2022-09-13T09:28:40;24.30;74.60
8910;DHT22;4490;49.072;8.804;2022-09-13T09:36:42;25.60;68.80
8910;DHT22;4490;49.072;8.804;2022-09-13T09:39:13;25.80;67.60
8910;DHT22;4490;49.072;8.804;2022-09-13T09:41:44;25.90;67.20
8910;DHT22;4490;49.072;8.804;2022-09-13T09:44:22;26.00;67.80
8910;DHT22;4490;49.072;8.804;2022-09-13T09:47:02;26.20;67.20
8910;DHT22;4490;49.072;8.804;2022-09-13T09:49:39;26.60;65.70
8910;DHT22;4490;49.072;8.804;2022-09-13T09:52:43;26.90;63.30
8910;DHT22;4490;49.072;8.804;2022-09-13T09:55:29;27.10;63.20
8910;DHT22;4490;49.072;8.804;2022-09-13T09:57:57;27.30;61.80
8910;DHT22;4490;49.072;8.804;2022-09-13T10:00:26;27.40;61.90
8910;DHT22;4490;49.072;8.804;2022-09-13T10:02:57;27.40;61.60
8910;DHT22;4490;49.072;8.804;2022-09-13T10:05:24;27.40;61.70
8910;DHT22;4490;49.072;8.804;2022-09-13T10:07:56;27.50;61.60
8910;DHT22;4490;49.072;8.804;2022-09-13T10:10:38;27.80;61.50
8910;DHT22;4490;49.072;8.804;2022-09-13T10:13:10;27.90;60.60
8910;DHT22;4490;49.072;8.804;2022-09-13T10:15:54;27.90;59.80
8910;DHT22;4490;49.072;8.804;2022-09-13T10:18:23;27.80;59.90
8910;DHT22;4490;49.072;8.804;2022-09-13T10:23:46;27.60;59.90
8910;DHT22;4490;49.072;8.804;2022-09-13T10:26:24;27.50;59.40
8910;DHT22;4490;49.072;8.804;2022-09-13T10:29:09;27.50;58.90
8910;DHT22;4490;49.072;8.804;2022-09-13T10:31:46;27.60;58.30
8910;DHT22;4490;49.072;8.804;2022-09-13T10:34:23;27.70;57.90
8910;DHT22;4490;49.072;8.804;2022-09-13T10:37:20;27.90;57.10
8910;DHT22;4490;49.072;8.804;2022-09-13T10:40:04;28.10;56.80
8910;DHT22;4490;49.072;8.804;2022-09-13T10:42:32;28.20;57.10
8910;DHT22;4490;49.072;8.804;2022-09-13T10:45:04;28.20;57.10
8910;DHT22;4490;49.072;8.804;2022-09-13T10:47:42;28.20;56.60
8910;DHT22;4490;49.072;8.804;2022-09-13T10:50:25;28.10;55.90
8910;DHT22;4490;49.072;8.804;2022-09-13T10:52:55;28.00;56.60
8910;DHT22;4490;49.072;8.804;2022-09-13T10:55:38;27.90;56.40
8910;DHT22;4490;49.072;8.804;2022-09-13T11:01:28;27.80;57.30
8910;DHT22;4490;49.072;8.804;2022-09-13T11:09:24;27.60;57.00
8910;DHT22;4490;49.072;8.804;2022-09-13T11:12:18;27.50;56.60
8910;DHT22;4490;49.072;8.804;2022-09-13T11:19:58;27.40;57.50
8910;DHT22;4490;49.072;8.804;2022-09-13T11:22:48;27.40;57.30
8910;DHT22;4490;49.072;8.804;2022-09-13T11:56:45;27.40;56.90
8910;DHT22;4490;49.072;8.804;2022-09-13T12:01:43;27.80;57.10
8910;DHT22;4490;49.072;8.804;2022-09-13T12:04:16;27.80;56.30
8910;DHT22;4490;49.072;8.804;2022-09-13T12:06:57;27.90;56.60
8910;DHT22;4490;49.072;8.804;2022-09-13T12:09:37;27.90;56.80
8910;DHT22;4490;49.072;8.804;2022-09-13T12:12:06;27.90;55.90
8910;DHT22;4490;49.072;8.804;2022-09-13T12:14:53;27.90;55.80
8910;DHT22;4490;49.072;8.804;2022-09-13T12:19:57;28.00;56.10
8910;DHT22;4490;49.072;8.804;2022-09-13T12:22:28;28.10;55.40
8910;DHT22;4490;49.072;8.804;2022-09-13T12:25:01;28.20;55.10
8910;DHT22;4490;49.072;8.804;2022-09-13T12:27:41;28.30;55.50
8910;DHT22;4490;49.072;8.804;2022-09-13T12:30:22;28.50;55.60
8910;DHT22;4490;49.072;8.804;2022-09-13T12:32:49;28.60;55.70
8910;DHT22;4490;49.072;8.804;2022-09-13T12:35:27;28.70;55.30
8910;DHT22;4490;49.072;8.804;2022-09-13T12:49:38;29.60;52.00
8910;DHT22;4490;49.072;8.804;2022-09-13T12:52:46;29.70;52.20
8910;DHT22;4490;49.072;8.804;2022-09-13T13:01:14;30.00;51.50
8910;DHT22;4490;49.072;8.804;2022-09-13T13:04:04;30.10;51.20
8910;DHT22;4490;49.072;8.804;2022-09-13T13:07:27;30.30;50.00
8910;DHT22;4490;49.072;8.804;2022-09-13T13:09:48;30.20;50.10
8910;DHT22;4490;49.072;8.804;2022-09-13T13:14:53;30.00;49.40
8910;DHT22;4490;49.072;8.804;2022-09-13T13:20:43;29.90;49.40
8910;DHT22;4490;49.072;8.804;2022-09-13T13:39:11;31.50;46.50
8910;DHT22;4490;49.072;8.804;2022-09-13T13:41:43;31.50;45.80
8910;DHT22;4490;49.072;8.804;2022-09-13T13:54:57;32.00;44.70
8910;DHT22;4490;49.072;8.804;2022-09-13T13:57:31;32.00;44.70
8910;DHT22;4490;49.072;8.804;2022-09-13T14:05:29;31.70;44.60
8910;DHT22;4490;49.072;8.804;2022-09-13T14:11:05;31.40;44.80
8910;DHT22;4490;49.072;8.804;2022-09-13T14:19:09;31.70;44.20
8910;DHT22;4490;49.072;8.804;2022-09-13T14:21:40;31.80;43.40
8910;DHT22;4490;49.072;8.804;2022-09-13T14:24:21;31.80;42.60
8910;DHT22;4490;49.072;8.804;2022-09-13T14:26:56;31.60;41.30
8910;DHT22;4490;49.072;8.804;2022-09-13T14:29:22;31.50;42.60
8910;DHT22;4490;49.072;8.804;2022-09-13T14:31:59;31.30;43.10
8910;DHT22;4490;49.072;8.804;2022-09-13T14:34:29;31.30;43.70
8910;DHT22;4490;49.072;8.804;2022-09-13T14:36:59;31.30;43.70
8910;DHT22;4490;49.072;8.804;2022-09-13T14:39:26;31.20;43.40
8910;DHT22;4490;49.072;8.804;2022-09-13T14:42:14;31.20;43.20
8910;DHT22;4490;49.072;8.804;2022-09-13T14:44:46;31.20;43.40
8910;DHT22;4490;49.072;8.804;2022-09-13T14:47:29;31.10;43.70
8910;DHT22;4490;49.072;8.804;2022-09-13T14:50:16;31.10;43.00
8910;DHT22;4490;49.072;8.804;2022-09-13T14:52:47;31.10;42.80
8910;DHT22;4490;49.072;8.804;2022-09-13T14:55:19;30.90;43.20
8910;DHT22;4490;49.072;8.804;2022-09-13T14:58:06;30.80;43.70
8910;DHT22;4490;49.072;8.804;2022-09-13T15:00:49;30.70;43.40
8910;DHT22;4490;49.072;8.804;2022-09-13T15:03:17;30.60;44.00
8910;DHT22;4490;49.072;8.804;2022-09-13T15:05:51;30.50;44.40
8910;DHT22;4490;49.072;8.804;2022-09-13T15:08:41;30.50;44.80
8910;DHT22;4490;49.072;8.804;2022-09-13T15:11:14;30.40;43.80
8910;DHT22;4490;49.072;8.804;2022-09-13T15:13:41;30.30;43.50
8910;DHT22;4490;49.072;8.804;2022-09-13T15:16:29;30.10;43.70
8910;DHT22;4490;49.072;8.804;2022-09-13T15:19:28;30.00;43.40
8910;DHT22;4490;49.072;8.804;2022-09-13T15:22:02;29.90;43.70
8910;DHT22;4490;49.072;8.804;2022-09-13T15:24:31;29.80;44.00
8910;DHT22;4490;49.072;8.804;2022-09-13T15:27:06;29.70;43.90
8910;DHT22;4490;49.072;8.804;2022-09-13T15:29:33;29.60;43.80
8910;DHT22;4490;49.072;8.804;2022-09-13T15:32:02;29.50;44.40
8910;DHT22;4490;49.072;8.804;2022-09-13T15:34:29;29.40;44.60
8910;DHT22;4490;49.072;8.804;2022-09-13T15:37:10;29.30;44.90
8910;DHT22;4490;49.072;8.804;2022-09-13T15:39:44;29.30;44.80
8910;DHT22;4490;49.072;8.804;2022-09-13T15:42:10;29.20;45.20
8910;DHT22;4490;49.072;8.804;2022-09-13T15:44:36;29.10;45.50
8910;DHT22;4490;49.072;8.804;2022-09-13T15:47:08;29.10;45.50
8910;DHT22;4490;49.072;8.804;2022-09-13T15:49:34;29.10;45.70
8910;DHT22;4490;49.072;8.804;2022-09-13T15:52:03;29.00;45.50
8910;DHT22;4490;49.072;8.804;2022-09-13T15:54:38;29.00;45.80
8910;DHT22;4490;49.072;8.804;2022-09-13T15:57:16;28.90;46.10
8910;DHT22;4490;49.072;8.804;2022-09-13T15:59:42;28.80;46.30
8910;DHT22;4490;49.072;8.804;2022-09-13T16:02:24;28.80;46.70
8910;DHT22;4490;49.072;8.804;2022-09-13T16:04:51;28.80;46.40
8910;DHT22;4490;49.072;8.804;2022-09-13T16:07:17;28.70;46.40
8910;DHT22;4490;49.072;8.804;2022-09-13T16:09:44;28.70;47.00
8910;DHT22;4490;49.072;8.804;2022-09-13T16:12:10;28.70;47.80
8910;DHT22;4490;49.072;8.804;2022-09-13T16:14:36;28.60;47.90
8910;DHT22;4490;49.072;8.804;2022-09-13T16:17:06;28.50;48.30
8910;DHT22;4490;49.072;8.804;2022-09-13T16:19:32;28.50;48.90
8910;DHT22;4490;49.072;8.804;2022-09-13T16:21:58;28.40;49.00
8910;DHT22;4490;49.072;8.804;2022-09-13T16:24:23;28.40;49.30
8910;DHT22;4490;49.072;8.804;2022-09-13T16:26:49;28.30;49.60
8910;DHT22;4490;49.072;8.804;2022-09-13T16:29:15;28.20;50.00
8910;DHT22;4490;49.072;8.804;2022-09-13T16:31:40;28.20;50.30
8910;DHT22;4490;49.072;8.804;2022-09-13T16:34:06;28.10;50.20
8910;DHT22;4490;49.072;8.804;2022-09-13T16:36:32;28.00;50.30
8910;DHT22;4490;49.072;8.804;2022-09-13T16:38:58;27.90;50.20
8910;DHT22;4490;49.072;8.804;2022-09-13T16:41:24;27.90;50.40
8910;DHT22;4490;49.072;8.804;2022-09-13T16:43:50;27.90;50.50
8910;DHT22;4490;49.072;8.804;2022-09-13T16:46:16;27.80;50.40
8910;DHT22;4490;49.072;8.804;2022-09-13T16:48:42;27.70;50.40
8910;DHT22;4490;49.072;8.804;2022-09-13T16:51:10;27.70;50.70
8910;DHT22;4490;49.072;8.804;2022-09-13T16:53:38;27.60;50.80
8910;DHT22;4490;49.072;8.804;2022-09-13T16:56:08;27.50;51.10
8910;DHT22;4490;49.072;8.804;2022-09-13T16:58:39;27.50;51.60
8910;DHT22;4490;49.072;8.804;2022-09-13T17:01:10;27.40;51.80
8910;DHT22;4490;49.072;8.804;2022-09-13T17:03:37;27.20;52.00
8910;DHT22;4490;49.072;8.804;2022-09-13T17:06:05;27.10;52.30
8910;DHT22;4490;49.072;8.804;2022-09-13T17:08:32;27.10;52.80
8910;DHT22;4490;49.072;8.804;2022-09-13T17:10:59;27.00;53.00
8910;DHT22;4490;49.072;8.804;2022-09-13T17:13:28;26.90;53.40
8910;DHT22;4490;49.072;8.804;2022-09-13T17:15:55;26.80;53.60
8910;DHT22;4490;49.072;8.804;2022-09-13T17:18:21;26.70;53.90
8910;DHT22;4490;49.072;8.804;2022-09-13T17:20:48;26.70;54.00
8910;DHT22;4490;49.072;8.804;2022-09-13T17:23:15;26.70;54.40
8910;DHT22;4490;49.072;8.804;2022-09-13T17:25:50;26.60;54.60
8910;DHT22;4490;49.072;8.804;2022-09-13T17:28:17;26.50;55.00
8910;DHT22;4490;49.072;8.804;2022-09-13T17:30:44;26.40;55.20
8910;DHT22;4490;49.072;8.804;2022-09-13T17:33:11;26.30;55.40
8910;DHT22;4490;49.072;8.804;2022-09-13T17:35:37;26.30;55.70
8910;DHT22;4490;49.072;8.804;2022-09-13T17:38:04;26.20;56.10
8910;DHT22;4490;49.072;8.804;2022-09-13T17:40:31;26.10;56.10
8910;DHT22;4490;49.072;8.804;2022-09-13T17:42:57;26.00;56.20
8910;DHT22;4490;49.072;8.804;2022-09-13T17:45:23;26.00;56.60
8910;DHT22;4490;49.072;8.804;2022-09-13T17:47:54;25.90;56.70
8910;DHT22;4490;49.072;8.804;2022-09-13T17:50:23;25.80;57.00
8910;DHT22;4490;49.072;8.804;2022-09-13T17:52:49;25.70;57.00
8910;DHT22;4490;49.072;8.804;2022-09-13T17:55:17;25.70;57.50
8910;DHT22;4490;49.072;8.804;2022-09-13T17:57:47;25.60;57.60
8910;DHT22;4490;49.072;8.804;2022-09-13T18:00:14;25.50;57.80
8910;DHT22;4490;49.072;8.804;2022-09-13T18:02:43;25.50;58.00
8910;DHT22;4490;49.072;8.804;2022-09-13T18:05:09;25.50;58.00
8910;DHT22;4490;49.072;8.804;2022-09-13T18:07:35;25.40;58.30
8910;DHT22;4490;49.072;8.804;2022-09-13T18:10:00;25.30;58.70
8910;DHT22;4490;49.072;8.804;2022-09-13T18:12:26;25.30;59.00
8910;DHT22;4490;49.072;8.804;2022-09-13T18:14:52;25.30;59.40
8910;DHT22;4490;49.072;8.804;2022-09-13T18:17:18;25.20;59.40
8910;DHT22;4490;49.072;8.804;2022-09-13T18:19:44;25.20;59.70
8910;DHT22;4490;49.072;8.804;2022-09-13T18:22:09;25.10;59.90
8910;DHT22;4490;49.072;8.804;2022-09-13T18:24:35;25.00;59.70
8910;DHT22;4490;49.072;8.804;2022-09-13T18:27:01;24.90;59.90
8910;DHT22;4490;49.072;8.804;2022-09-13T18:29:27;24.80;60.00
8910;DHT22;4490;49.072;8.804;2022-09-13T18:31:53;24.70;60.40
8910;DHT22;4490;49.072;8.804;2022-09-13T18:34:20;24.60;60.80
8910;DHT22;4490;49.072;8.804;2022-09-13T18:36:45;24.50;60.90
8910;DHT22;4490;49.072;8.804;2022-09-13T18:39:15;24.40;61.10
8910;DHT22;4490;49.072;8.804;2022-09-13T18:41:41;24.20;61.30
8910;DHT22;4490;49.072;8.804;2022-09-13T18:44:08;24.00;61.60
8910;DHT22;4490;49.072;8.804;2022-09-13T18:46:35;23.90;62.20
8910;DHT22;4490;49.072;8.804;2022-09-13T18:49:02;23.80;62.80
8910;DHT22;4490;49.072;8.804;2022-09-13T18:51:39;23.70;63.00
8910;DHT22;4490;49.072;8.804;2022-09-13T18:54:06;23.60;63.40
8910;DHT22;4490;49.072;8.804;2022-09-13T18:56:33;23.50;63.50
8910;DHT22;4490;49.072;8.804;2022-09-13T18:59:01;23.40;63.60
8910;DHT22;4490;49.072;8.804;2022-09-13T19:01:29;23.40;64.00
8910;DHT22;4490;49.072;8.804;2022-09-13T19:03:57;23.40;64.20
8910;DHT22;4490;49.072;8.804;2022-09-13T19:06:28;23.30;64.50
8910;DHT22;4490;49.072;8.804;2022-09-13T19:08:55;23.40;64.80
8910;DHT22;4490;49.072;8.804;2022-09-13T19:11:23;23.40;64.90
8910;DHT22;4490;49.072;8.804;2022-09-13T19:13:49;23.40;64.80
8910;DHT22;4490;49.072;8.804;2022-09-13T19:16:16;23.30;64.70
8910;DHT22;4490;49.072;8.804;2022-09-13T19:18:44;23.30;65.00
8910;DHT22;4490;49.072;8.804;2022-09-13T19:21:19;23.20;65.40
8910;DHT22;4490;49.072;8.804;2022-09-13T19:23:46;23.20;65.80
8910;DHT22;4490;49.072;8.804;2022-09-13T19:26:21;23.10;66.00
8910;DHT22;4490;49.072;8.804;2022-09-13T19:28:58;23.10;66.30